Benvolgut visitant, si us plau, ingressa Recuperar contrasenya
AVAMET paisatges
Union Alcoyana

Alacant Serra Grossa (I.Jesuïtes)

Dades diàries. Acumulats / Últims 30 dies disponibles

Data Temperatura (°C) Humitat rel. (%) Pressió rel. (hPa) Vent (km/h) Precipitació
Mínima Mitjana Màxima Amplitud
tèrmica
Mínima Mitjana Màxima Mínima Mitjana Màxima Predom. Mitjana Ràfega
màxima
Total
(mm)
Índex-n
Mínima Mitjana Màxima Mínima Mitjana Màxima n
0 a 1
P0 max
mm 5'
Dades mensuals acumulades fins l'últim dia disponible
05/2022 16,4 20,3 25,8 21,6 18,5 23,1 32,3 15,9 35 67 88 1.001 1.013 1.019   0,0 0,0 0,0
Dades anuals acumulades fins l'últim dia disponible
2022 4,9 12,9 25,8 15,4 11,9 18,1 32,3 27,4 12 68 95 996 1.015 1.030   0,0 20,9 82,4
Últims 30 dies disponibles
26-05-2022 20,6     21,3     22,5 1,9 50 60 71 1.016 1.017 1.018 SSE 0,0 0,0 0,0
25-05-2022 19,6     20,6     21,8 2,2 42 59 69 1.012 1.013 1.015 SE 0,0 0,0 0,0
24-05-2022 21,3     21,8     22,1 0,8 82 84 86 1.001 1.002 1.004 SSE 0,0 0,0 0,0
23-05-2022 24,2     27,1     32,3 8,1 35 57 72 1.002 1.003 1.004 S 0,0 0,0 0,0
22-05-2022 22,3     24,0     26,3 4,0 56 65 77 1.004 1.006 1.008 S 0,0 0,0 0,0
21-05-2022 22,7     25,3     26,9 4,2 41 52 69 1.013 1.015 1.016 NNE 0,0 0,0 0,0
20-05-2022 25,8     27,4     28,6 2,8 45 50 59 1.016 1.017 1.017 E 0,0 0,0 0,0
19-05-2022 24,2     25,2     26,3 2,1 45 56 67 1.015 1.016 1.016 NE 0,0 0,0 0,0
18-05-2022 22,6     23,9     26,2 3,6 64 71 80 1.012 1.013 1.014 NE 0,0 0,0 0,0
17-05-2022 20,9     21,9     23,2 2,3 69 80 86 1.013 1.014 1.015 S 0,0 0,0 0,0
16-05-2022 22,1     23,4     24,9 2,8 58 71 79 1.013 1.014 1.015 SSE 0,0 0,0 0,0
15-05-2022 19,6     21,3     23,4 3,8 55 74 86 1.011 1.012 1.013 SE 0,0 0,0 0,0
14-05-2022 21,8     22,8     23,9 2,1 47 60 69 1.012 1.013 1.015 ENE 0,0 0,0 0,0
13-05-2022 18,7     19,8     20,7 2,0 74 81 88 1.015 1.016 1.017 SE 0,0 0,0 0,0
12-05-2022 19,4     21,4     23,4 4,0 51 67 81 1.014 1.015 1.016 NE 0,0 0,0 0,0
11-05-2022 19,3     20,4     21,7 2,4 56 67 80 1.015 1.016 1.017 E 0,0 0,0 0,0
10-05-2022 18,8     19,7     20,7 1,9 55 68 73 1.017 1.018 1.019 S 0,0 0,0 0,0
09-05-2022 19,5     20,9     22,7 3,2 46 61 75 1.017 1.017 1.018 NNE 0,0 0,0 0,0
08-05-2022 18,8     19,5     20,3 1,5 58 65 75 1.014 1.014 1.015 SSE 0,0 0,0 0,0
07-05-2022 18,2     19,1     20,0 1,8 56 69 77 1.014 1.015 1.016 SSE 0,0 0,0 0,0
06-05-2022 17,3     18,6     20,2 2,9 64 73 81 1.014 1.015 1.015 S 0,0 0,0 0,0
05-05-2022 18,3     19,6     20,7 2,4 47 59 67 1.015 1.015 1.016 ESE 0,0 0,0 0,0
03-05-2022 16,8     17,6     18,5 1,7 73 78 83 1.006 1.006 1.007 SSE 0,0 0,0 0,0
02-05-2022 16,4     18,0     19,4 3,0 63 77 86 1.005 1.006 1.008 NE 0,0 0,0 0,0
01-05-2022 18,4     19,5     20,8 2,4 58 65 72 1.006 1.007 1.009 ESE 0,0 0,0 0,0
30-04-2022 17,8     19,8     23,4 5,6 39 61 81 1.015 1.016 1.017 S 0,0 0,0 0,0
29-04-2022 18,3     19,8     20,6 2,3 53 58 72 1.016 1.017 1.019 NNW 0,0 0,0 0,0
26-04-2022 16,8     18,0     19,2 2,4 50 57 66 1.008 1.009 1.010 N 0,0 0,0 0,0
25-04-2022 16,3     17,1     18,2 1,9 60 75 82 1.007 1.008 1.009 ENE 0,0 0,0 0,0
24-04-2022 15,5     18,0     22,1 6,6 40 63 83 1.006 1.007 1.008 SSE 0,0 0,0 0,0
Últims 13 mesos disponibles
04/2022 10,4 15,5 19,3 17,5 12,2 19,6 24,3 13,9 38 62 89 996 1.008 1.017 S 0,0
02/2022 7,6 10,1 12,6 13,2 13,6 16,6 21,2 13,6 47 69 85 1.013 1.019 1.026 ENE 0,0 20,9 1,6
01/2022 4,9 7,8 14,3 11,2 11,9 15,2 23,8 18,9 37 68 90 1.010 1.021 1.027 ENE 0,0 20,9 21,0
12/2021 8,3 11,4 17,3 14,4 14,5 17,8 23,3 15,0 45 67 90 1.005 1.015 1.023 W 0,0 22,5 1,8
11/2021 8,2 12,1 21,6 14,9 12,9 18,3 26,8 18,6 46 63 85 1.001 1.010 1.022 WNW 1,6 52,9
10/2021 14,1 17,1 20,9 20,1 20,7 23,5 29,8 15,7 52 75 84 1.002 1.014 1.021 ENE 0,9 56,3 30,0
09/2021 17,3 21,8 25,1 24,5 25,2 27,4 31,9 14,6 62 73 82 1.008 1.013 1.019 SE 5,8 49,9 3,6
08/2021 20,6 23,5 26,3 26,3 26,7 29,3 35,7 15,1 59 76 86 1.003 1.011 1.016 ENE 5,1 49,9 1,7
07/2021 19,8 22,0 25,3 25,1 25,3 28,6 35,3 15,5 57 76 87 1.005 1.011 1.017 SE 4,7 43,5 4,2
06/2021 17,2 20,0 23,2 22,8 22,2 25,6 29,7 12,5 50 73 89 1.006 1.012 1.017 ENE 5,8 48,3 13,1
05/2021 13,5 16,0 20,3 18,9 18,4 22,1 31,9 18,4 48 73 86 1.000 1.012 1.020 ENE 5,5 49,9 50,1
04/2021 8,3 12,5 15,5 15,0 14,1 17,9 27,1 18,8 60 79 88 999 1.012 1.021 ENE 5,5 45,1 42,2
03/2021 7,0 10,8 15,3 13,6 12,4 16,6 23,2 16,2 47 72 89 1.009 1.018 1.024 ENE 3,4 57,9 46,3
Tots els anys disponibles
2021 3,8 15,6 26,3 18,5 9,6 21,7 35,7 31,9 44 72 90 999 1.013 1.031 ENE 4,1 83,7 272,0
2020 3,9 10,8 18,4 18,2 21,8 27,6 33,5 29,6 61 69 78 1.009 1.014 1.018 ENE 5,8 88,5 192,4
2019 3,4 15,3 26,1 18,5 12,2 21,9 35,0 31,6 23 67 90 991 1.010 1.026 SE 6,5 86,9 420,0
2018 4,8 14,6 25,7 17,7 10,2 21,8 34,5 29,7 40 68 87 989 1.010 1.025 SE 6,2 86,8 266,0
2017 3,5 11,7 19,4 18,7 19,5 27,1 33,1 29,6 59 68 74 1.007 1.010 1.015 5,5 77,4 272,1
2016 7,9 16,4 25,3 19,4 12,7 22,6 35,3 27,4 38 69 91 991 1.010 1.028 4,5 66,0 190,6
2015 6,7 17,4 26,6 20,4 12,5 23,5 36,8 30,1 61 68 73 1.010 1.013 1.023 3,5 59,0 216,5
2014 4,2 15,9 25,8 19,1 11,3 22,2 35,3 31,1 39 66 83 989 1.012 1.029 89,0 134,6
2013 3,6 15,0 18,4 18,3 19,8 21,5 35,1 31,5 55 64 71 1.006 1.013 1.021 90,0 192,2
Temperatura (°C)
Humitat relativa (%)
Pressió (hPa)
Nota sobre les dades: s'avisa a l'usuari de la provisionalitat i no oficialitat d'aquestes dades
Logo AVAMET blanc
Web allotjada a Sollutia
Llicència de Creative CommonsLa web d'AVAMET i els seus continguts estan subjectes a una llicència de
Reconeixement - No Comercial - Compartir igual
Avís legal - Política de privacitat - Política de cookies
NOVES ESTACIONS:  l'Alqueria d'Asnar (Ajuntament/Soci), les Alqueries - Cap del Terme (Soci), Vila-real - les Solaes (Soci), Calles - Parque de Emergencias (Soci), Bocairent - els Corrals (Soci), Sella - el Xarquer, Xàbia - Far del Cap de la Nau (Soci), Benicàssim - Quadre de Santiago (Soci), Sant Mateu - IES Maestrat (Soci)  / el Palomar (Ajuntament/Soci) / Atzeneta del Maestrat - Pla de Meanes (Ajuntament/Soci) / Onda - Sant Gil (Soci) / Onda - Ràtils CR Cota 220 (Soci) / la Vila Joiosa (Ajuntament/Soci) / Miramar - Platja (Ajuntament/Soci) / Massanassa - IES Massanassa (Soci) / Culla - Pla de les Vinyes (Ajuntament/Soci) - - -